Time;durP1;ratioP1;P1;durP2;ratioP2;P2;SDS_P1;SDS_P2;PMS_P1;PMS_P2;Temp;Humidity;BMP_temperature;BMP_pressure;BME280_temperature;BME280_humidity;BME280_pressure;Samples;Min_cycle;Max_cycle;Signal;HPM_P1;HPM_P2
2021/10/07 00:00:19;;;;;;;;;;;;;;;8.74;86.62;97640.63;30001;967;1904;-62
2021/10/07 00:00:50;;;;;;;;;;;;;;;8.74;86.84;97640.63;30001;983;1849;-62
2021/10/07 00:01:21;;;;;;;;;;;;;;;8.74;86.73;97635.22;30001;983;1880;-62
2021/10/07 00:01:52;;;;;;;;;;;;;;;8.75;87.29;97641.44;30001;983;1876;-62
2021/10/07 00:02:23;;;;;;;;;;;;;;;8.74;86.86;97634.41;30001;983;1880;-61
2021/10/07 00:02:54;;;;;;;;;;;;;;;8.76;87.14;97642.25;30001;983;1876;-62
2021/10/07 00:03:28;;;;;;;;;;;;;;;8.75;87.04;97630.63;30001;983;1880;-61
2021/10/07 00:03:59;;;;;;;;;;;;;;;8.76;87.07;97636.84;30001;982;1850;-62
2021/10/07 00:04:31;;;;;;;;;;;;;;;8.77;86.79;97641.19;30001;982;1880;-62
2021/10/07 00:05:03;;;;;;;;;;;;;;;8.78;86.88;97640.09;30001;982;1876;-62
2021/10/07 00:05:33;;;;;;;;;;;;;;;8.78;86.57;97640.91;30001;982;1880;-61
2021/10/07 00:06:04;;;;;;;;;;;;;;;8.78;86.73;97634.69;30001;982;1876;-60
2021/10/07 00:06:35;;;;;;;;;;;;;;;8.77;86.54;97636.59;30001;983;1880;-62
2021/10/07 00:07:09;;;;;;;;;;;;;;;8.80;86.57;97640.66;30001;983;1849;-62
2021/10/07 00:07:40;;;;;;;;;;;;;;;8.79;86.40;97641.75;30001;983;1879;-62
2021/10/07 00:08:11;;;;;;;;;;;;;;;8.80;86.81;97632.53;30001;983;1875;-63
2021/10/07 00:08:42;;;;;;;;;;;;;;;8.80;86.46;97636.06;30001;983;1880;-62
2021/10/07 00:09:13;;;;;;;;;;;;;;;8.81;86.42;97640.41;30001;983;1849;-62
2021/10/07 00:09:43;;;;;;;;;;;;;;;8.80;86.43;97630.66;30001;983;1880;-65
2021/10/07 00:10:14;;;;;;;;;;;;;;;8.81;86.42;97634.16;30001;983;1876;-62
2021/10/07 00:10:45;;;;;;;;;;;;;;;8.81;86.29;97642.28;30001;983;1880;-63
2021/10/07 00:11:16;;;;;;;;;;;;;;;8.80;86.76;97643.38;30001;982;1876;-62
2021/10/07 00:11:47;;;;;;;;;;;;;;;8.78;86.50;97634.69;30001;982;1880;-61
2021/10/07 00:12:19;;;;;;;;;;;;;;;8.77;86.59;97633.88;30001;982;1876;-61
2021/10/07 00:12:50;;;;;;;;;;;;;;;8.77;86.52;97638.47;30001;982;1880;-60
2021/10/07 00:13:21;;;;;;;;;;;;;;;8.79;86.91;97633.63;30001;982;1876;-64
2021/10/07 00:13:52;;;;;;;;;;;;;;;8.78;86.66;97637.41;30001;983;1880;-61
2021/10/07 00:14:23;;;;;;;;;;;;;;;8.79;86.72;97633.63;30001;983;1849;-61
2021/10/07 00:14:54;;;;;;;;;;;;;;;8.79;86.64;97630.91;30001;983;1879;-61
2021/10/07 00:15:24;;;;;;;;;;;;;;;8.78;86.83;97630.09;30001;983;1875;-68
2021/10/07 00:15:56;;;;;;;;;;;;;;;8.79;86.57;97633.63;30001;983;1853;-61
2021/10/07 00:16:26;;;;;;;;;;;;;;;8.78;86.48;97635.50;30001;983;1876;-61
2021/10/07 00:16:57;;;;;;;;;;;;;;;8.78;86.64;97640.09;30001;983;1880;-62
2021/10/07 00:17:28;;;;;;;;;;;;;;;8.76;86.88;97632.25;30001;983;1876;-61
2021/10/07 00:17:59;;;;;;;;;;;;;;;8.76;86.41;97637.66;30001;986;1880;-61
2021/10/07 00:18:36;;;;;;;;;;;;;;;8.76;86.62;97634.97;30001;983;1876;-62
2021/10/07 00:19:07;;;;;;;;;;;;;;;8.75;86.62;97636.03;30001;982;1880;-59
2021/10/07 00:19:38;;;;;;;;;;;;;;;8.74;86.85;97632.50;30001;982;1876;-62
2021/10/07 00:20:11;;;;;;;;;;;;;;;8.75;86.93;97636.03;30001;982;1854;-66
2021/10/07 00:20:41;;;;;;;;;;;;;;;8.76;86.73;97631.44;30001;982;1876;-60
2021/10/07 00:21:16;;;;;;;;;;;;;;;8.76;86.49;97636.84;30001;983;1879;-64
2021/10/07 00:21:47;;;;;;;;;;;;;;;8.78;86.59;97634.69;30001;983;1875;-60
2021/10/07 00:22:18;;;;;;;;;;;;;;;8.78;86.29;97640.09;30001;983;1880;-65
2021/10/07 00:22:48;;;;;;;;;;;;;;;8.78;86.76;97640.09;30001;983;1875;-62
2021/10/07 00:23:24;;;;;;;;;;;;;;;8.78;86.63;97640.09;30001;983;1880;-65
2021/10/07 00:24:53;;;;;;;;;;;;;;;8.78;86.54;97640.09;30001;983;1854;-62
2021/10/07 00:25:23;;;;;;;;;;;;;;;8.78;86.73;97640.09;30001;983;1876;-65
2021/10/07 00:25:54;;;;;;;;;;;;;;;8.78;86.61;97645.53;30001;983;1880;-66
2021/10/07 00:26:25;;;;;;;;;;;;;;;8.77;86.56;97644.69;30001;982;1876;-64
2021/10/07 00:26:56;;;;;;;;;;;;;;;8.78;86.50;97637.41;30001;982;1880;-62
2021/10/07 00:27:27;;;;;;;;;;;;;;;8.79;86.95;97636.31;30001;982;1850;-62
2021/10/07 00:28:06;;;;;;;;;;;;;;;8.76;86.77;97632.25;30001;982;1881;-61
2021/10/07 00:28:37;;;;;;;;;;;;;;;8.77;86.74;97633.88;30001;982;1876;-62
2021/10/07 00:30:02;;;;;;;;;;;;;;;8.77;86.89;97630.34;30001;983;1806;-66
2021/10/07 00:30:34;;;;;;;;;;;;;;;8.77;87.05;97633.06;30001;983;1854;-65
2021/10/07 00:31:11;;;;;;;;;;;;;;;8.78;86.92;97634.69;30001;983;1875;-62
2021/10/07 00:31:45;;;;;;;;;;;;;;;8.76;86.76;97632.25;30001;983;1854;-62
2021/10/07 00:32:19;;;;;;;;;;;;;;;8.77;86.66;97627.66;30001;983;1876;-62
2021/10/07 00:33:05;;;;;;;;;;;;;;;8.74;86.53;97635.22;30001;983;1880;-66
2021/10/07 00:33:57;;;;;;;;;;;;;;;8.73;86.76;97641.69;30001;982;1876;-62
2021/10/07 00:34:48;;;;;;;;;;;;;;;8.73;86.71;97628.19;30001;982;1880;-66
2021/10/07 00:39:09;;;;;;;;;;;;;;;8.73;86.85;97633.59;30001;983;1876;-61
2021/10/07 00:39:40;;;;;;;;;;;;;;;8.73;86.76;97632.78;30001;983;1880;-61
2021/10/07 00:40:11;;;;;;;;;;;;;;;8.73;86.75;97633.59;30001;983;1849;-61
2021/10/07 00:40:42;;;;;;;;;;;;;;;8.73;86.67;97636.28;30001;982;1880;-61
2021/10/07 00:41:13;;;;;;;;;;;;;;;8.73;86.88;97633.59;30001;982;1850;-62
2021/10/07 00:41:44;;;;;;;;;;;;;;;8.74;86.61;97629.81;30001;982;1880;-62
2021/10/07 00:42:16;;;;;;;;;;;;;;;8.76;86.92;97634.12;30001;982;1876;-63
2021/10/07 00:42:46;;;;;;;;;;;;;;;8.74;86.72;97637.91;30001;982;1880;-61
2021/10/07 00:43:17;;;;;;;;;;;;;;;8.74;86.82;97640.63;30001;982;1876;-62
2021/10/07 00:43:48;;;;;;;;;;;;;;;8.74;86.66;97635.22;30001;982;1881;-62
2021/10/07 00:44:19;;;;;;;;;;;;;;;8.76;86.54;97631.44;30001;983;1875;-62
2021/10/07 00:44:50;;;;;;;;;;;;;;;8.76;86.52;97632.25;30001;983;1880;-61
2021/10/07 00:45:21;;;;;;;;;;;;;;;8.77;86.57;97636.59;30001;983;1875;-62
2021/10/07 00:45:54;;;;;;;;;;;;;;;8.80;86.71;97643.38;30001;983;1853;-62
2021/10/07 00:46:25;;;;;;;;;;;;;;;8.82;86.35;97635.81;30001;983;1876;-61
2021/10/07 00:46:59;;;;;;;;;;;;;;;8.82;86.38;97636.63;30001;983;1880;-61
2021/10/07 00:47:30;;;;;;;;;;;;;;;8.82;86.03;97635.81;30001;983;1849;-61
2021/10/07 00:48:01;;;;;;;;;;;;;;;8.82;86.24;97630.37;30001;983;1880;-61
2021/10/07 00:48:32;;;;;;;;;;;;;;;8.82;86.20;97631.19;30001;982;1850;-61
2021/10/07 00:49:03;;;;;;;;;;;;;;;8.82;86.21;97630.37;30001;982;1880;-61
2021/10/07 00:49:38;;;;;;;;;;;;;;;8.80;86.35;97633.34;30001;982;1787;-62
2021/10/07 00:50:09;;;;;;;;;;;;;;;8.79;86.16;97637.13;30001;982;1880;-62
2021/10/07 00:50:40;;;;;;;;;;;;;;;8.79;86.41;97633.63;30001;969;1872;-62
2021/10/07 00:51:11;;;;;;;;;;;;;;;8.78;86.39;97634.69;30001;982;1880;-62
2021/10/07 00:51:42;;;;;;;;;;;;;;;8.78;86.69;97634.69;30001;983;1875;-62
2021/10/07 00:52:15;;;;;;;;;;;;;;;8.77;86.58;97633.06;30001;983;1880;-61
2021/10/07 00:52:46;;;;;;;;;;;;;;;8.77;86.41;97630.34;30001;983;1875;-62
2021/10/07 00:53:18;;;;;;;;;;;;;;;8.78;86.56;97629.28;30001;983;1880;-61
2021/10/07 00:53:49;;;;;;;;;;;;;;;8.79;86.68;97633.63;30001;983;1875;-62
2021/10/07 00:54:22;;;;;;;;;;;;;;;8.81;86.34;97639.59;30001;983;1853;-61
2021/10/07 00:54:55;;;;;;;;;;;;;;;8.82;86.29;97633.91;30001;983;1875;-60
2021/10/07 00:55:25;;;;;;;;;;;;;;;8.83;86.02;97640.13;30001;983;1880;-61
2021/10/07 00:56:00;;;;;;;;;;;;;;;8.82;86.11;97630.37;30001;982;1876;-62
2021/10/07 00:56:31;;;;;;;;;;;;;;;8.82;85.98;97635.81;30001;983;1880;-62
2021/10/07 00:57:04;;;;;;;;;;;;;;;8.82;86.21;97641.22;30001;982;1876;-62
2021/10/07 00:57:35;;;;;;;;;;;;;;;8.81;86.07;97640.41;30001;982;1880;-61
2021/10/07 00:58:06;;;;;;;;;;;;;;;8.83;86.15;97642.84;30001;982;1850;-61
2021/10/07 00:58:37;;;;;;;;;;;;;;;8.81;86.45;97640.41;30001;982;1881;-61
2021/10/07 00:59:08;;;;;;;;;;;;;;;8.82;86.30;97635.81;30001;983;1875;-62
2021/10/07 00:59:40;;;;;;;;;;;;;;;8.83;86.41;97640.13;30001;983;1880;-62
2021/10/07 01:00:11;;;;;;;;;;;;;;;8.85;86.11;97635.28;30001;983;1849;-61
2021/10/07 01:00:43;;;;;;;;;;;;;;;8.85;86.12;97638.78;30001;983;1880;-61
2021/10/07 01:01:14;;;;;;;;;;;;;;;8.88;86.30;97637.47;30001;983;1875;-61
2021/10/07 01:01:45;;;;;;;;;;;;;;;8.88;85.84;97640.97;30001;983;1880;-62
2021/10/07 01:02:16;;;;;;;;;;;;;;;8.89;85.95;97636.38;30001;983;1876;-62
2021/10/07 01:02:47;;;;;;;;;;;;;;;8.87;85.95;97633.13;30001;983;1880;-62
2021/10/07 01:03:18;;;;;;;;;;;;;;;8.87;86.23;97635.84;30001;982;1876;-62
2021/10/07 01:03:49;;;;;;;;;;;;;;;8.85;85.89;97635.28;30001;982;1880;-62
2021/10/07 01:04:20;;;;;;;;;;;;;;;8.84;85.94;97639.06;30001;982;1849;-63
2021/10/07 01:04:51;;;;;;;;;;;;;;;8.85;85.84;97635.28;30001;982;1880;-62
2021/10/07 01:05:22;;;;;;;;;;;;;;;8.88;85.93;97632.03;30001;982;1876;-61
2021/10/07 01:05:52;;;;;;;;;;;;;;;8.88;85.65;97634.75;30001;983;1879;-61
2021/10/07 01:06:24;;;;;;;;;;;;;;;8.90;85.60;97638.00;30001;983;1875;-62
2021/10/07 01:06:54;;;;;;;;;;;;;;;8.89;85.87;97636.38;30001;983;1879;-62
2021/10/07 01:07:26;;;;;;;;;;;;;;;8.88;85.92;97640.16;30001;983;1875;-61
2021/10/07 01:07:57;;;;;;;;;;;;;;;8.86;85.91;97639.63;30001;983;1880;-62
2021/10/07 01:08:28;;;;;;;;;;;;;;;8.85;86.39;97635.28;30001;983;1876;-61
2021/10/07 01:08:59;;;;;;;;;;;;;;;8.84;86.38;97642.56;30001;983;1853;-62
2021/10/07 01:09:31;;;;;;;;;;;;;;;8.83;86.42;97634.72;30001;983;1875;-61
2021/10/07 01:10:02;;;;;;;;;;;;;;;8.83;86.46;97643.66;30001;983;1880;-60
2021/10/07 01:10:33;;;;;;;;;;;;;;;8.83;86.49;97642.84;30001;983;1875;-62
2021/10/07 01:11:04;;;;;;;;;;;;;;;8.82;86.79;97638.50;30001;982;1854;-61
2021/10/07 01:11:35;;;;;;;;;;;;;;;8.81;86.55;97640.41;30001;982;1870;-62
2021/10/07 01:12:07;;;;;;;;;;;;;;;8.81;86.50;97639.59;30001;982;1880;-62
2021/10/07 01:12:37;;;;;;;;;;;;;;;8.82;86.71;97641.22;30001;982;1876;-61
2021/10/07 01:13:12;;;;;;;;;;;;;;;8.81;86.50;97639.59;30001;982;1880;-62
2021/10/07 01:13:43;;;;;;;;;;;;;;;8.82;86.52;97635.81;30001;983;1849;-62
2021/10/07 01:14:31;;;;;;;;;;;;;;;8.80;86.57;97629.84;30001;983;1879;-61
2021/10/07 01:15:02;;;;;;;;;;;;;;;8.80;86.64;97638.78;30001;983;1875;-65
2021/10/07 01:15:32;;;;;;;;;;;;;;;8.82;86.71;97635.81;30001;983;1880;-62
2021/10/07 01:16:04;;;;;;;;;;;;;;;8.82;86.60;97638.50;30001;983;1875;-62
2021/10/07 01:16:35;;;;;;;;;;;;;;;8.81;86.38;97645.00;30001;986;1880;-61
2021/10/07 01:17:06;;;;;;;;;;;;;;;8.80;86.83;97638.78;30001;983;1876;-62
2021/10/07 01:17:36;;;;;;;;;;;;;;;8.80;86.65;97632.53;30001;983;1880;-61
2021/10/07 01:18:07;;;;;;;;;;;;;;;8.79;86.83;97636.31;30001;983;1849;-64
2021/10/07 01:18:39;;;;;;;;;;;;;;;8.76;86.85;97634.97;30001;982;1880;-62
2021/10/07 01:19:09;;;;;;;;;;;;;;;8.76;87.21;97637.66;30001;982;1876;-61
2021/10/07 01:19:45;;;;;;;;;;;;;;;8.76;86.98;97637.66;30001;982;1880;-65
2021/10/07 01:20:17;;;;;;;;;;;;;;;8.75;86.84;97636.03;30001;982;1876;-62
2021/10/07 01:20:48;;;;;;;;;;;;;;;8.76;86.91;97642.25;30001;983;1879;-62
2021/10/07 01:21:19;;;;;;;;;;;;;;;8.76;86.98;97634.12;30001;983;1875;-62
2021/10/07 01:21:50;;;;;;;;;;;;;;;8.77;87.05;97635.78;30001;963;1899;-62
2021/10/07 01:22:22;;;;;;;;;;;;;;;8.76;87.05;97639.56;30001;983;1875;-62
2021/10/07 01:22:53;;;;;;;;;;;;;;;8.75;87.02;97630.63;30001;983;1853;-61
2021/10/07 01:23:23;;;;;;;;;;;;;;;8.76;87.07;97642.25;30001;983;1875;-62
2021/10/07 01:23:54;;;;;;;;;;;;;;;8.74;86.74;97637.09;30001;983;1880;-62
2021/10/07 01:24:25;;;;;;;;;;;;;;;8.74;86.92;97637.91;30001;983;1875;-62
2021/10/07 01:24:56;;;;;;;;;;;;;;;8.74;87.01;97637.91;30001;983;1880;-62
2021/10/07 01:25:31;;;;;;;;;;;;;;;8.76;86.72;97636.84;30001;983;1876;-62
2021/10/07 01:26:02;;;;;;;;;;;;;;;8.76;87.16;97639.56;30001;982;1797;-62
2021/10/07 01:26:32;;;;;;;;;;;;;;;8.76;86.92;97636.84;30001;982;1849;-62
2021/10/07 01:27:04;;;;;;;;;;;;;;;8.76;86.85;97637.66;30001;982;1880;-61
2021/10/07 01:27:37;;;;;;;;;;;;;;;8.78;86.84;97645.53;30001;982;1876;-62
2021/10/07 01:28:11;;;;;;;;;;;;;;;8.78;86.70;97645.53;30001;982;1880;-62
2021/10/07 01:28:44;;;;;;;;;;;;;;;8.78;86.69;97646.34;30001;983;1875;-62
2021/10/07 01:29:15;;;;;;;;;;;;;;;8.79;86.67;97641.75;30001;983;1879;-61
2021/10/07 01:29:51;;;;;;;;;;;;;;;8.80;86.80;97648.78;30001;987;1875;-63
2021/10/07 01:30:21;;;;;;;;;;;;;;;8.79;86.50;97645.25;30001;983;1880;-66
2021/10/07 01:30:52;;;;;;;;;;;;;;;8.80;86.70;97648.78;30001;983;1849;-61
2021/10/07 01:31:23;;;;;;;;;;;;;;;8.84;86.59;97644.47;30001;983;1880;-67
2021/10/07 01:31:54;;;;;;;;;;;;;;;8.87;86.12;97652.06;30001;983;1875;-65
2021/10/07 01:32:26;;;;;;;;;;;;;;;8.87;85.87;97649.34;30001;983;1880;-61
2021/10/07 01:32:57;;;;;;;;;;;;;;;8.87;85.78;97643.94;30001;983;1876;-62
2021/10/07 01:33:28;;;;;;;;;;;;;;;8.87;86.06;97643.94;30001;982;1880;-62
2021/10/07 01:33:59;;;;;;;;;;;;;;;8.86;86.07;97645.84;30001;982;1850;-61
2021/10/07 01:34:30;;;;;;;;;;;;;;;8.86;85.73;97653.16;30001;982;1880;-61
2021/10/07 01:35:01;;;;;;;;;;;;;;;8.86;86.07;97647.72;30001;982;1876;-65
2021/10/07 01:35:32;;;;;;;;;;;;;;;8.84;86.28;97649.88;30001;982;1880;-62
2021/10/07 01:36:04;;;;;;;;;;;;;;;8.83;86.23;97648.25;30001;983;1875;-62
2021/10/07 01:36:35;;;;;;;;;;;;;;;8.82;86.25;97646.63;30001;983;1880;-62
2021/10/07 01:37:05;;;;;;;;;;;;;;;8.80;86.36;97655.00;30001;983;1875;-61
2021/10/07 01:37:40;;;;;;;;;;;;;;;8.80;86.30;97648.78;30001;983;1880;-67
2021/10/07 01:38:10;;;;;;;;;;;;;;;8.80;86.43;97648.78;30001;983;1875;-61
2021/10/07 01:38:41;;;;;;;;;;;;;;;8.80;86.55;97644.19;30001;983;1853;-62
2021/10/07 01:39:12;;;;;;;;;;;;;;;8.81;86.48;97647.69;30001;983;1875;-65
2021/10/07 01:39:43;;;;;;;;;;;;;;;8.79;86.47;97653.37;30001;983;1880;-61
2021/10/07 01:40:14;;;;;;;;;;;;;;;8.79;86.28;97652.56;30001;982;1876;-65
2021/10/07 01:40:45;;;;;;;;;;;;;;;8.78;86.63;97648.22;30001;982;1880;-62
2021/10/07 01:41:15;;;;;;;;;;;;;;;8.79;86.28;97647.16;30001;982;1876;-62
2021/10/07 01:41:47;;;;;;;;;;;;;;;8.77;86.66;97649.31;30001;982;1854;-62
2021/10/07 01:42:18;;;;;;;;;;;;;;;8.78;86.52;97656.34;30001;982;1876;-63
2021/10/07 01:42:49;;;;;;;;;;;;;;;8.77;86.33;97654.72;30001;982;1880;-61
2021/10/07 01:43:20;;;;;;;;;;;;;;;8.76;86.36;97647.66;30001;982;1876;-62
2021/10/07 01:43:55;;;;;;;;;;;;;;;8.76;86.75;97650.38;30001;983;1879;-62
2021/10/07 01:44:26;;;;;;;;;;;;;;;8.74;86.66;97648.75;30001;983;1875;-62
2021/10/07 01:44:57;;;;;;;;;;;;;;;8.74;86.64;97646.03;30001;983;1879;-62
2021/10/07 01:45:27;;;;;;;;;;;;;;;8.73;86.63;97641.69;30001;983;1876;-66
2021/10/07 01:45:58;;;;;;;;;;;;;;;8.72;86.64;97640.06;30001;983;1880;-63
2021/10/07 01:46:30;;;;;;;;;;;;;;;8.73;86.90;97649.81;30001;983;1875;-65
2021/10/07 01:47:00;;;;;;;;;;;;;;;8.73;87.01;97647.13;30001;983;1854;-61
2021/10/07 01:47:31;;;;;;;;;;;;;;;8.74;87.16;97647.94;30001;983;1875;-62
2021/10/07 01:48:04;;;;;;;;;;;;;;;8.74;87.42;97650.62;30001;982;1880;-61
2021/10/07 01:48:35;;;;;;;;;;;;;;;8.73;87.81;97647.13;30001;982;1876;-61
2021/10/07 01:49:07;;;;;;;;;;;;;;;8.72;87.91;97648.19;30001;982;1854;-66
2021/10/07 01:49:39;;;;;;;;;;;;;;;8.71;87.82;97651.97;30001;982;1876;-61
2021/10/07 01:50:11;;;;;;;;;;;;;;;8.70;87.69;97647.63;30001;982;1881;-62
2021/10/07 01:50:42;;;;;;;;;;;;;;;8.72;87.47;97648.19;30001;982;1876;-62
2021/10/07 01:51:13;;;;;;;;;;;;;;;8.71;87.53;97645.75;30001;983;1879;-62
2021/10/07 01:51:44;;;;;;;;;;;;;;;8.71;87.58;97651.97;30001;983;1875;-65
2021/10/07 01:52:15;;;;;;;;;;;;;;;8.73;87.87;97657.12;30001;983;1880;-67
2021/10/07 01:52:45;;;;;;;;;;;;;;;8.72;87.52;97650.91;30001;983;1876;-62
2021/10/07 01:53:16;;;;;;;;;;;;;;;8.73;87.49;97649.81;30001;983;1854;-62
2021/10/07 01:53:47;;;;;;;;;;;;;;;8.74;87.48;97647.94;30001;983;1876;-66
2021/10/07 01:54:19;;;;;;;;;;;;;;;8.73;87.53;97649.00;30001;983;1880;-62
2021/10/07 01:54:49;;;;;;;;;;;;;;;8.74;87.20;97648.75;30001;983;1876;-61
2021/10/07 01:55:20;;;;;;;;;;;;;;;8.76;87.55;97647.66;30001;982;1880;-62
2021/10/07 01:55:51;;;;;;;;;;;;;;;8.76;87.29;97647.66;30001;982;1876;-62
2021/10/07 01:56:22;;;;;;;;;;;;;;;8.77;87.30;97649.31;30001;982;1880;-64
2021/10/07 01:56:53;;;;;;;;;;;;;;;8.77;87.26;97641.19;30001;982;1876;-65
2021/10/07 01:57:23;;;;;;;;;;;;;;;8.77;87.61;97638.47;30001;982;1805;-62
2021/10/07 01:57:54;;;;;;;;;;;;;;;8.78;87.69;97651.75;30001;982;1876;-62
2021/10/07 01:58:25;;;;;;;;;;;;;;;8.77;87.61;97649.31;30001;982;1854;-61
2021/10/07 01:58:57;;;;;;;;;;;;;;;8.77;87.31;97646.59;30001;983;1849;-62
2021/10/07 01:59:27;;;;;;;;;;;;;;;8.76;87.25;97642.25;30001;983;1880;-61
2021/10/07 01:59:58;;;;;;;;;;;;;;;8.77;87.25;97643.88;30001;983;1875;-62
2021/10/07 02:00:30;;;;;;;;;;;;;;;8.76;87.26;97642.25;30001;983;1880;-62
2021/10/07 02:01:01;;;;;;;;;;;;;;;8.78;87.36;97642.81;30001;983;1876;-65
2021/10/07 02:01:32;;;;;;;;;;;;;;;8.78;87.11;97650.94;30001;983;1880;-62
2021/10/07 02:02:04;;;;;;;;;;;;;;;8.79;86.87;97647.16;30001;983;1849;-62
2021/10/07 02:02:35;;;;;;;;;;;;;;;8.79;86.95;97658.78;30001;983;1880;-61
2021/10/07 02:03:05;;;;;;;;;;;;;;;8.79;87.06;97649.84;30001;982;1875;-61
2021/10/07 02:03:36;;;;;;;;;;;;;;;8.79;87.08;97647.97;30001;982;1880;-62
2021/10/07 02:04:07;;;;;;;;;;;;;;;8.79;86.82;97655.25;30001;982;1850;-62
2021/10/07 02:04:38;;;;;;;;;;;;;;;8.78;86.78;97651.75;30001;982;1880;-61
2021/10/07 02:05:09;;;;;;;;;;;;;;;8.78;87.05;97651.75;30001;982;1876;-62
2021/10/07 02:05:40;;;;;;;;;;;;;;;8.78;87.06;97650.94;30001;982;1880;-61
2021/10/07 02:06:11;;;;;;;;;;;;;;;8.78;87.34;97651.75;30001;973;1885;-61
2021/10/07 02:06:41;;;;;;;;;;;;;;;8.78;86.94;97648.22;30001;983;1880;-61
2021/10/07 02:07:12;;;;;;;;;;;;;;;8.78;87.25;97651.75;30001;983;1875;-62
2021/10/07 02:07:43;;;;;;;;;;;;;;;8.79;87.21;97656.09;30001;983;1880;-62
2021/10/07 02:08:14;;;;;;;;;;;;;;;8.80;87.35;97648.78;30001;983;1876;-62
2021/10/07 02:08:45;;;;;;;;;;;;;;;8.80;87.10;97648.78;30001;983;1880;-61
2021/10/07 02:09:16;;;;;;;;;;;;;;;8.80;87.29;97649.59;30001;983;1849;-63
2021/10/07 02:09:47;;;;;;;;;;;;;;;8.81;87.39;97647.69;30001;983;1880;-61
2021/10/07 02:10:17;;;;;;;;;;;;;;;8.81;87.49;97650.41;30001;982;1876;-62
2021/10/07 02:10:48;;;;;;;;;;;;;;;8.80;87.44;97644.19;30001;982;1880;-62
2021/10/07 02:11:19;;;;;;;;;;;;;;;8.82;87.58;97654.75;30001;982;1876;-62
2021/10/07 02:11:50;;;;;;;;;;;;;;;8.82;87.62;97654.75;30001;982;1880;-63
2021/10/07 02:12:20;;;;;;;;;;;;;;;8.82;87.68;97649.34;30001;982;1850;-62
2021/10/07 02:12:51;;;;;;;;;;;;;;;8.82;87.51;97657.44;30001;983;1880;-62
2021/10/07 02:13:23;;;;;;;;;;;;;;;8.82;87.56;97649.34;30001;983;1875;-63
2021/10/07 02:13:54;;;;;;;;;;;;;;;8.80;87.40;97652.31;30001;983;1880;-62
2021/10/07 02:14:25;;;;;;;;;;;;;;;8.81;87.75;97655.81;30001;983;1875;-62
2021/10/07 02:14:56;;;;;;;;;;;;;;;8.80;87.71;97651.47;30001;983;1880;-63
2021/10/07 02:15:27;;;;;;;;;;;;;;;8.81;88.05;97647.69;30001;983;1876;-62
2021/10/07 02:16:01;;;;;;;;;;;;;;;8.81;87.86;97651.22;30001;983;1880;-61
2021/10/07 02:16:33;;;;;;;;;;;;;;;8.82;88.10;97652.03;30001;983;1876;-62
2021/10/07 02:17:04;;;;;;;;;;;;;;;8.82;88.07;97654.75;30001;983;1880;-62
2021/10/07 02:17:34;;;;;;;;;;;;;;;8.81;87.65;97651.22;30001;983;1849;-62
2021/10/07 02:18:05;;;;;;;;;;;;;;;8.82;87.61;97652.03;30001;982;1880;-62
2021/10/07 02:18:36;;;;;;;;;;;;;;;8.81;87.50;97656.62;30001;982;1876;-62
2021/10/07 02:19:07;;;;;;;;;;;;;;;8.81;87.47;97653.13;30001;982;1880;-62
2021/10/07 02:19:38;;;;;;;;;;;;;;;8.82;87.51;97657.44;30001;982;1850;-62
2021/10/07 02:20:10;;;;;;;;;;;;;;;8.82;87.25;97652.03;30001;974;1898;-62
2021/10/07 02:20:41;;;;;;;;;;;;;;;8.81;87.21;97651.22;30001;983;1849;-63
2021/10/07 02:21:12;;;;;;;;;;;;;;;8.82;87.05;97652.84;30001;983;1879;-65
2021/10/07 02:21:44;;;;;;;;;;;;;;;8.83;86.97;97654.47;30001;986;1875;-62
2021/10/07 02:22:15;;;;;;;;;;;;;;;8.83;86.95;97650.97;30001;983;1880;-62
2021/10/07 02:22:46;;;;;;;;;;;;;;;8.83;86.89;97653.66;30001;983;1875;-62
2021/10/07 02:23:17;;;;;;;;;;;;;;;8.83;86.82;97656.38;30001;983;1880;-62
2021/10/07 02:23:48;;;;;;;;;;;;;;;8.83;86.96;97653.66;30001;983;1876;-61
2021/10/07 02:24:19;;;;;;;;;;;;;;;8.84;86.88;97658.00;30001;983;1854;-62
2021/10/07 02:24:51;;;;;;;;;;;;;;;8.82;86.57;97660.16;30001;983;1876;-62
2021/10/07 02:25:22;;;;;;;;;;;;;;;8.82;87.16;97652.84;30001;982;1880;-61
2021/10/07 02:25:53;;;;;;;;;;;;;;;8.81;87.15;97655.81;30001;982;1876;-61
2021/10/07 02:26:24;;;;;;;;;;;;;;;8.80;86.76;97651.47;30001;982;1880;-62
2021/10/07 02:26:54;;;;;;;;;;;;;;;8.80;86.70;97648.78;30001;982;1876;-62
2021/10/07 02:27:25;;;;;;;;;;;;;;;8.80;86.75;97654.19;30001;982;1880;-62
2021/10/07 02:27:56;;;;;;;;;;;;;;;8.80;87.01;97651.47;30001;983;1875;-62
2021/10/07 02:28:27;;;;;;;;;;;;;;;8.79;86.91;97653.37;30001;983;1879;-61
2021/10/07 02:28:58;;;;;;;;;;;;;;;8.78;87.20;97653.63;30001;983;1849;-65
2021/10/07 02:29:28;;;;;;;;;;;;;;;8.79;87.31;97647.16;30001;983;1880;-61
2021/10/07 02:29:59;;;;;;;;;;;;;;;8.79;86.94;97647.16;30001;983;1849;-62
2021/10/07 02:30:30;;;;;;;;;;;;;;;8.78;87.08;97650.94;30001;983;1880;-62
2021/10/07 02:31:01;;;;;;;;;;;;;;;8.78;87.23;97645.53;30001;983;1876;-62
2021/10/07 02:31:32;;;;;;;;;;;;;;;8.78;87.07;97645.53;30001;983;1880;-61
2021/10/07 02:32:03;;;;;;;;;;;;;;;8.79;87.57;97645.25;30001;983;1875;-61
2021/10/07 02:32:34;;;;;;;;;;;;;;;8.77;87.37;97649.31;30001;983;1880;-62
2021/10/07 02:33:05;;;;;;;;;;;;;;;8.77;87.73;97655.53;30001;982;1850;-64
2021/10/07 02:33:36;;;;;;;;;;;;;;;8.77;87.62;97646.59;30001;982;1880;-64
2021/10/07 02:34:07;;;;;;;;;;;;;;;8.74;87.76;97654.16;30001;982;1876;-62
2021/10/07 02:34:38;;;;;;;;;;;;;;;8.76;87.67;97653.09;30001;982;1880;-60
2021/10/07 02:35:08;;;;;;;;;;;;;;;8.75;87.99;97652.25;30001;982;1876;-62
2021/10/07 02:35:40;;;;;;;;;;;;;;;8.74;87.97;97643.34;30001;983;1853;-61
2021/10/07 02:36:11;;;;;;;;;;;;;;;8.76;87.64;97653.09;30001;983;1849;-62
2021/10/07 02:36:41;;;;;;;;;;;;;;;8.74;87.85;97646.03;30001;983;1879;-62
2021/10/07 02:37:12;;;;;;;;;;;;;;;8.77;87.58;97654.72;30001;983;1875;-62
2021/10/07 02:37:44;;;;;;;;;;;;;;;8.77;87.50;97649.31;30001;983;1880;-60
2021/10/07 02:38:15;;;;;;;;;;;;;;;8.77;87.80;97654.72;30001;983;1875;-65
2021/10/07 02:38:46;;;;;;;;;;;;;;;8.76;87.57;97653.09;30001;983;1880;-62
2021/10/07 02:39:16;;;;;;;;;;;;;;;8.74;87.59;97648.75;30001;983;1876;-62
2021/10/07 02:39:47;;;;;;;;;;;;;;;8.75;87.83;97646.84;30001;983;1854;-62
2021/10/07 02:40:18;;;;;;;;;;;;;;;8.75;87.81;97652.25;30001;972;1896;-61
2021/10/07 02:40:49;;;;;;;;;;;;;;;8.76;87.64;97653.91;30001;982;1880;-62
2021/10/07 02:41:20;;;;;;;;;;;;;;;8.76;87.63;97651.19;30001;982;1876;-62
2021/10/07 02:41:51;;;;;;;;;;;;;;;8.76;87.32;97647.66;30001;982;1880;-62
2021/10/07 02:42:22;;;;;;;;;;;;;;;8.76;87.51;97650.38;30001;982;1850;-66
2021/10/07 02:42:52;;;;;;;;;;;;;;;8.76;87.26;97647.66;30001;982;1880;-61
2021/10/07 02:43:23;;;;;;;;;;;;;;;8.78;87.53;97653.63;30001;983;1875;-62
2021/10/07 02:43:54;;;;;;;;;;;;;;;8.77;87.59;97649.31;30001;983;1880;-62
2021/10/07 02:44:25;;;;;;;;;;;;;;;8.77;87.15;97652.81;30001;983;1876;-63
2021/10/07 02:44:55;;;;;;;;;;;;;;;8.78;87.38;97650.94;30001;983;1853;-65
2021/10/07 02:45:27;;;;;;;;;;;;;;;8.78;87.51;97650.94;30001;983;1875;-62
2021/10/07 02:45:58;;;;;;;;;;;;;;;8.79;87.55;97657.97;30001;983;1854;-61
2021/10/07 02:46:29;;;;;;;;;;;;;;;8.78;87.37;97654.44;30001;983;1876;-64
2021/10/07 02:46:59;;;;;;;;;;;;;;;8.78;87.46;97656.34;30001;983;1880;-62
2021/10/07 02:47:30;;;;;;;;;;;;;;;8.77;87.82;97650.12;30001;982;1849;-64
2021/10/07 02:48:01;;;;;;;;;;;;;;;8.77;87.80;97646.59;30001;982;1881;-62
2021/10/07 02:48:32;;;;;;;;;;;;;;;8.77;87.47;97650.12;30001;982;1876;-63
2021/10/07 02:49:04;;;;;;;;;;;;;;;8.78;87.78;97653.63;30001;982;1854;-62
2021/10/07 02:49:35;;;;;;;;;;;;;;;8.78;87.42;97662.56;30001;982;1876;-62
2021/10/07 02:50:08;;;;;;;;;;;;;;;8.78;87.54;97659.03;30001;982;1880;-64
2021/10/07 02:50:39;;;;;;;;;;;;;;;8.80;87.52;97659.59;30001;983;1875;-61
2021/10/07 02:51:10;;;;;;;;;;;;;;;8.78;87.80;97662.56;30001;983;1880;-62
2021/10/07 02:51:41;;;;;;;;;;;;;;;8.79;87.74;97657.97;30001;983;1875;-62
2021/10/07 02:52:12;;;;;;;;;;;;;;;8.78;87.85;97665.28;30001;983;1880;-62
2021/10/07 02:52:42;;;;;;;;;;;;;;;8.78;87.77;97661.75;30001;983;1876;-62
2021/10/07 02:53:13;;;;;;;;;;;;;;;8.78;87.82;97661.75;30001;983;1853;-62
2021/10/07 02:53:44;;;;;;;;;;;;;;;8.79;88.02;97663.38;30001;983;1849;-60
2021/10/07 02:54:15;;;;;;;;;;;;;;;8.78;88.16;97665.28;30001;983;1880;-63
2021/10/07 02:54:46;;;;;;;;;;;;;;;8.79;88.02;97668.78;30001;982;1876;-63
2021/10/07 02:55:17;;;;;;;;;;;;;;;8.77;88.38;97666.34;30001;982;1846;-63
2021/10/07 02:55:47;;;;;;;;;;;;;;;8.77;88.21;97660.94;30001;982;1876;-62
2021/10/07 02:56:18;;;;;;;;;;;;;;;8.76;88.68;97661.19;30001;982;1880;-61